Latest Weather Observations for Morawa Airport

IDW60801

Issued at 11:14 pm WST Friday 28 February 2020 (issued every 10 minutes, with the page automatically refreshed every 10 minutes)

About weather observations | Map of weather stations | Latest weather observations for WA | Other Formats
Station Details ID: 008296 Name: MORAWA AIRPORT Lat: -29.20 Lon: 116.02 Height: 271.4 m
Data from the previous 72 hours. | See also: Recent months at Morawa Airport
Date/Time
WST
Temp
°C
App
Temp
°C
Dew
Point
°C
Rel
Hum
%
Delta-T
°C
Wind Press
QNH
hPa
Press
MSL
hPa
Rain since
9am
mm
Dir  Spd
km/h
Gust
km/h
Spd
kts
Gust
kts
28/11:00pm 22.6 25.6 22.6 100 0.0 WSW 11 19 6 10 1008.9 1007.1 0.0
28/10:30pm 23.2 25.6 22.2 94 0.7 WSW 13 20 7 11 1009.1 1007.3 0.0
28/10:00pm 23.8 25.6 21.9 89 1.3 WSW 15 20 8 11 1009.3 1007.5 0.0
28/09:30pm 24.0 25.4 21.9 88 1.4 SW 17 24 9 13 1009.4 1007.6 0.0
28/09:00pm 24.3 26.2 22.0 87 1.5 WSW 15 20 8 11 1009.3 1007.5 0.0
28/08:30pm 24.7 26.6 22.0 85 1.8 WSW 15 24 8 13 1009.1 1007.3 0.0
28/08:00pm 25.3 27.1 21.8 81 2.4 SW 15 24 8 13 1008.7 1006.9 0.0
28/07:30pm 26.4 27.3 21.6 75 3.2 WSW 19 28 10 15 1008.3 1006.5 0.0
28/07:00pm 27.8 28.7 21.6 69 4.2 SW 19 28 10 15 1007.7 1005.8 0.0
28/06:30pm 29.5 30.0 21.2 61 5.6 SW 20 30 11 16 1007.3 1005.4 0.0
28/06:00pm 31.3 31.4 21.2 55 6.9 WSW 22 32 12 17 1007.0 1005.1 0.0
28/05:30pm 32.7 32.7 20.9 49 8.0 WSW 22 32 12 17 1006.8 1004.9 0.0
28/05:00pm 34.5 34.3 19.7 41 9.9 WSW 20 32 11 17 1006.4 1004.5 0.0
28/04:30pm 35.3 34.3 17.5 34 11.6 WSW 19 28 10 15 1006.3 1004.4 0.0
28/04:00pm 35.4 35.2 17.6 35 11.6 WSW 15 26 8 14 1006.5 1004.6 0.0
28/03:30pm 35.1 34.6 17.8 36 11.3 SW 17 30 9 16 1006.7 1004.8 0.0
28/03:00pm 34.9 33.9 17.6 35 11.3 WSW 19 28 10 15 1006.9 1005.0 0.0
28/02:30pm 35.0 34.5 16.8 34 11.7 SW 15 26 8 14 1007.0 1005.1 0.0
28/02:00pm 35.0 35.4 17.2 34 11.6 SW 11 20 6 11 1007.0 1005.1 0.0
28/01:30pm 34.2 34.9 17.0 36 11.1 SW 9 15 5 8 1007.1 1005.2 0.0
28/01:00pm 32.9 33.3 16.3 37 10.6 SSW 9 15 5 8 1007.4 1005.5 0.0
28/12:30pm 32.1 31.7 17.2 41 9.6 SSW 15 20 8 11 1007.7 1005.8 0.0
28/12:00pm 32.3 32.8 17.4 41 9.6 S 11 19 6 10 1007.9 1006.0 0.0
28/11:30am 31.1 31.1 18.1 46 8.4 SSW 15 22 8 12 1008.2 1006.4 0.0
28/11:00am 30.0 29.5 17.8 48 7.9 SSW 17 24 9 13 1008.4 1006.6 0.0
28/10:30am 29.5 28.7 18.0 50 7.4 SSW 19 28 10 15 1008.7 1006.9 0.0
28/10:00am 30.4 30.4 17.1 44 8.5 SSW 13 20 7 11 1008.6 1006.8 0.0
28/09:30am 29.3 29.1 17.5 49 7.6 SW 15 22 8 12 1008.7 1006.9 0.0
28/09:00am 29.4 31.4 17.9 50 7.4 NW 4 13 2 7 1008.7 1006.9 0.0
28/08:30am 27.8 29.0 18.2 56 6.2 E 9 13 5 7 1007.9 1006.0 0.0
28/08:00am 26.3 26.2 17.9 60 5.4 ESE 15 19 8 10 1008.1 1006.3 0.0
28/07:30am 24.6 24.7 18.3 68 4.0 ESE 15 20 8 11 1008.2 1006.4 0.0
28/07:00am 23.8 23.6 18.4 72 3.4 ESE 17 22 9 12 1008.3 1006.5 0.0
28/06:30am 22.9 22.7 18.4 76 2.9 ESE 17 24 9 13 1008.4 1006.6 0.0
28/06:00am 22.8 23.1 18.8 78 2.6 SE 15 19 8 10 1008.4 1006.6 0.0
28/05:30am 23.0 23.6 18.7 77 2.7 SE 13 19 7 10 1008.5 1006.7 0.0
28/05:00am 23.3 22.8 18.6 75 3.0 SE 19 24 10 13 1008.3 1006.5 0.0
28/04:30am 23.4 23.3 18.7 75 3.0 SE 17 22 9 12 1008.4 1006.6 0.0
28/04:00am 24.0 23.8 18.6 72 3.5 SSE 17 24 9 13 1008.4 1006.6 0.0
28/03:30am 24.4 25.2 19.0 72 3.5 S 13 19 7 10 1008.6 1006.8 0.0
28/03:00am 24.6 25.4 19.0 71 3.6 S 13 17 7 9 1008.7 1006.9 0.0
28/02:30am 24.7 25.5 19.1 71 3.6 SE 13 19 7 10 1008.2 1006.4 0.0
28/02:00am 25.0 25.7 18.9 69 3.9 ESE 13 19 7 10 1008.3 1006.5 0.0
28/01:30am 25.5 26.4 19.2 68 4.1 SE 13 20 7 11 1008.3 1006.5 0.0
28/01:00am 25.5 26.9 19.6 70 3.9 SSE 11 15 6 8 1008.4 1006.6 0.0
28/12:30am 26.5 27.2 18.9 63 4.9 S 13 20 7 11 1008.2 1006.4 0.0
28/12:00am 26.7 27.5 19.1 63 4.9 SSE 13 20 7 11 1009.0 1007.2 0.0
 
Date/Time
WST
Temp
°C
App
Temp
°C
Dew
Point
°C
Rel
Hum
%
Delta-T
°C
Wind Press
QNH
hPa
Press
MSL
hPa
Rain since
9am
mm
Dir  Spd
km/h
Gust
km/h
Spd
kts
Gust
kts
27/11:30pm 26.6 27.6 19.5 65 4.6 SE 13 20 7 11 1008.9 1007.1 0.0
27/11:00pm 26.8 26.6 19.4 64 4.8 SE 19 28 10 15 1008.8 1007.0 0.0
27/10:30pm 26.8 25.7 19.4 64 4.8 SE 24 33 13 18 1009.1 1007.3 0.0
27/10:00pm 26.9 26.6 19.5 64 4.8 SE 20 30 11 16 1009.4 1007.6 0.0
27/09:30pm 27.1 25.9 20.0 65 4.7 SE 26 37 14 20 1009.8 1007.9 0.0
27/09:00pm 28.5 27.3 19.2 57 6.1 SSE 24 35 13 19 1010.1 1008.2 0.0
27/08:30pm 28.7 27.1 19.1 56 6.3 SSE 26 37 14 20 1008.9 1007.1 0.0
27/08:00pm 28.8 25.9 18.9 55 6.5 SE 32 43 17 23 1008.4 1006.6 0.0
27/07:30pm 29.9 26.7 18.7 51 7.3 SE 33 44 18 24 1008.3 1006.5 0.0
27/07:00pm 31.5 28.5 17.8 44 8.9 SE 30 41 16 22 1007.9 1006.0 0.0
27/06:30pm 32.5 28.3 17.2 40 9.8 SE 35 50 19 27 1007.5 1005.6 0.0
27/06:00pm 33.9 30.1 17.2 37 10.8 SE 33 46 18 25 1007.3 1005.4 0.0
27/05:30pm 35.3 32.2 17.5 34 11.6 SE 30 41 16 22 1007.1 1005.2 0.0
27/05:00pm 35.3 32.0 17.0 33 11.9 SSE 30 41 16 22 1007.2 1005.3 0.0
27/04:30pm 36.2 33.2 16.9 32 12.5 SE 28 39 15 21 1007.3 1005.4 0.0
27/04:00pm 36.5 33.0 16.6 30 12.9 SE 30 43 16 23 1007.3 1005.4 0.0
27/03:30pm 36.6 33.8 17.2 31 12.6 SSE 28 37 15 20 1007.5 1005.6 0.0
27/03:00pm 35.2 32.4 18.3 36 11.2 SSE 30 39 16 21 1008.1 1006.3 0.0
27/02:30pm 35.3 32.4 18.0 36 11.4 SE 30 39 16 21 1008.6 1006.8 0.0
27/02:00pm 34.7 32.5 17.9 37 11.0 SE 26 39 14 21 1009.1 1007.3 0.0
27/01:30pm 33.5 31.3 18.8 41 9.7 SE 28 39 15 21 1009.7 1007.8 0.0
27/01:00pm 32.6 30.6 18.4 43 9.3 SE 26 39 14 21 1010.2 1008.3 0.0
27/12:30pm 31.8 29.5 18.4 45 8.8 SE 28 35 15 19 1010.5 1008.6 0.0
27/12:00pm 31.3 29.3 18.3 46 8.5 SE 26 37 14 20 1010.9 1009.0 0.0
27/11:30am 29.8 27.0 18.3 50 7.5 SE 30 43 16 23 1011.4 1009.6 0.0
27/11:00am 28.6 26.4 18.7 55 6.4 SSE 28 35 15 19 1012.1 1010.3 0.0
27/10:30am 27.5 25.3 18.8 59 5.6 SSE 28 35 15 19 1012.4 1010.6 0.0
27/10:00am 26.3 25.8 19.2 65 4.6 S 20 28 11 15 1013.0 1011.2 0.0
27/09:30am 24.9 25.3 19.1 70 3.7 SSW 15 20 8 11 1014.2 1012.3 0.0
27/09:25am 24.9 25.2 18.8 69 3.9 SSE 15 26 8 14 1013.6 1011.7 0.0
27/09:00am 25.1 22.8 18.5 67 4.2 ESE 28 41 15 22 1011.5 1009.7 5.6
27/08:30am 24.4 22.6 18.8 71 3.6 ESE 26 37 14 20 1011.7 1009.9 5.6
27/08:00am 24.3 22.3 19.1 73 3.4 SE 28 37 15 20 1011.8 1010.0 5.6
27/07:30am 24.1 22.6 19.4 75 3.0 SE 26 35 14 19 1012.0 1010.2 5.6
27/07:00am 23.3 22.4 19.0 77 2.8 SE 22 30 12 16 1011.8 1010.0 5.6
27/06:30am 22.3 21.9 19.3 83 1.9 SSE 20 28 11 15 1011.9 1010.1 5.6
27/06:00am 22.7 22.6 18.7 78 2.6 SSW 17 24 9 13 1012.2 1010.4 5.6
27/05:30am 22.9 23.2 18.7 77 2.7 ESE 15 19 8 10 1010.8 1008.9 5.6
27/05:00am 23.1 23.2 18.4 75 3.0 ESE 15 20 8 11 1010.7 1008.8 5.6
27/04:30am 23.3 22.7 18.4 74 3.1 ESE 19 24 10 13 1010.6 1008.7 5.6
27/04:00am 23.4 23.2 18.5 74 3.1 SE 17 22 9 12 1010.7 1008.8 5.6
27/03:30am 23.6 22.7 18.3 72 3.4 ESE 20 30 11 16 1010.3 1008.4 5.6
27/03:00am 23.3 23.4 19.2 78 2.6 ESE 17 22 9 12 1010.4 1008.5 5.6
27/02:30am 23.2 23.5 19.6 80 2.3 SE 17 26 9 14 1010.8 1008.9 5.6
27/02:00am 23.6 23.1 19.1 76 2.9 ESE 20 28 11 15 1011.3 1009.4 5.6
27/01:30am 23.8 22.9 19.1 75 3.0 ESE 22 30 12 16 1011.3 1009.4 5.6
27/01:00am 23.5 22.8 19.4 78 2.7 SE 22 30 12 16 1011.6 1009.8 5.6
27/12:30am 23.5 23.1 19.4 78 2.6 SSE 20 26 11 14 1012.2 1010.4 5.6
27/12:00am 23.8 24.3 19.3 76 2.9 S 15 22 8 12 1012.8 1011.0 5.6
 
Date/Time
WST
Temp
°C
App
Temp
°C
Dew
Point
°C
Rel
Hum
%
Delta-T
°C
Wind Press
QNH
hPa
Press
MSL
hPa
Rain since
9am
mm
Dir  Spd
km/h
Gust
km/h
Spd
kts
Gust
kts
26/11:30pm 23.8 23.9 19.1 75 3.0 SE 17 20 9 11 1012.7 1010.9 5.6
26/11:00pm 24.1 24.1 19.0 73 3.3 SSE 17 22 9 12 1012.9 1011.1 5.6
26/10:30pm 24.2 24.1 18.8 72 3.5 SSE 17 22 9 12 1013.0 1011.2 5.6
26/10:00pm 24.6 24.4 18.5 69 3.9 SSE 17 20 9 11 1013.1 1011.3 5.6
26/09:30pm 24.7 23.1 18.4 68 4.0 SE 24 30 13 16 1012.8 1011.0 5.6
26/09:00pm 25.1 24.2 17.8 64 4.6 S 19 30 10 16 1013.5 1011.6 5.6
26/08:30pm 25.3 21.5 18.0 64 4.6 ESE 35 54 19 29 1012.2 1010.4 5.6
26/08:07pm 25.1 22.7 19.0 69 3.9 ESE 30 59 16 32 1011.5 1009.7 5.6
26/08:00pm 25.4 22.6 19.1 68 4.1 ESE 32 43 17 23 1012.0 1010.2 5.6
26/07:30pm 25.4 23.3 19.8 71 3.7 SE 30 43 16 23 1011.5 1009.7 5.6
26/07:00pm 25.4 24.8 20.4 74 3.3 SE 24 35 13 19 1011.7 1009.9 5.6
26/06:30pm 25.7 23.9 20.3 72 3.6 SE 30 39 16 21 1011.8 1010.0 5.6
26/06:00pm 26.9 25.2 19.8 65 4.7 SE 28 39 15 21 1011.8 1010.0 5.6
26/05:30pm 27.1 25.6 20.9 69 4.1 SE 30 43 16 23 1011.9 1010.1 5.6
26/05:00pm 27.8 25.3 20.9 66 4.6 SE 35 43 19 23 1012.1 1010.3 5.6
26/04:30pm 28.5 26.6 21.0 64 5.0 ESE 32 43 17 23 1012.3 1010.5 5.6
26/04:00pm 28.9 26.3 20.6 61 5.5 ESE 35 46 19 25 1012.0 1010.2 5.6
26/03:30pm 27.8 27.5 21.1 67 4.5 SE 24 33 13 18 1012.4 1010.6 5.6
26/03:00pm 26.8 27.7 22.0 75 3.2 SE 20 32 11 17 1013.1 1011.3 5.6
26/02:30pm 26.2 25.4 21.6 76 3.1 ESE 28 39 15 21 1012.6 1010.8 5.6
26/02:00pm 25.7 24.2 21.8 79 2.6 ESE 32 46 17 25 1011.6 1009.8 5.6
26/01:30pm 25.1 25.3 22.0 83 2.1 ESE 24 33 13 18 1013.6 1011.7 5.6
26/01:00pm 24.6 24.7 22.5 88 1.4 ESE 26 35 14 19 1013.7 1011.8 5.6
26/12:30pm 25.1 26.1 22.2 84 2.0 ESE 20 28 11 15 1014.6 1012.7 5.4
26/12:00pm 24.5 26.3 24.3 99 0.1 ESE 22 32 12 17 1014.6 1012.7 5.4
26/11:30am 24.0 26.6 24.0 100 0.0 SE 17 22 9 12 1014.5 1012.6 5.4
26/11:00am 23.2 26.1 23.2 100 0.0 SE 13 17 7 9 1015.1 1013.3 5.4
26/10:30am 23.0 25.0 23.0 100 0.0 ESE 17 22 9 12 1014.9 1013.1 5.2
26/10:00am 22.7 26.7 22.7 100 0.0 E 6 9 3 5 1016.4 1014.6 4.2
26/09:30am 22.8 25.5 22.8 100 0.0 N 13 19 7 10 1017.1 1015.3 1.6
26/09:00am 24.4 25.2 21.3 83 2.1 NNE 19 26 10 14 1016.0 1014.2 1.8
26/08:55am 24.8 25.2 20.9 79 2.6 NE 20 28 11 15 1015.4 1013.6 1.8
26/08:30am 24.9 24.1 20.8 78 2.7 ENE 26 35 14 19 1013.3 1011.5 1.8
26/08:00am 24.9 25.2 21.6 82 2.2 E 22 32 12 17 1012.6 1010.8 1.8
26/07:30am 24.2 25.1 21.9 87 1.5 E 20 28 11 15 1012.9 1011.1 1.8
26/07:00am 24.4 25.7 21.7 85 1.8 E 17 24 9 13 1013.5 1011.6 1.8
26/06:30am 23.6 26.1 22.4 93 0.8 E 13 17 7 9 1013.0 1011.2 1.8
26/06:00am 23.4 25.7 22.7 96 0.5 ESE 15 19 8 10 1012.9 1011.1 1.8
26/05:30am 23.7 25.1 22.5 93 0.8 E 19 26 10 14 1012.4 1010.6 1.8
26/05:00am 23.7 25.7 22.9 95 0.5 E 17 26 9 14 1012.4 1010.6 1.8
26/04:30am 23.0 23.7 23.0 100 0.0 ESE 24 32 13 17 1011.6 1009.8 1.6
26/04:22am 23.2 25.7 23.2 100 0.0 ENE 15 28 8 15 1011.9 1010.1 1.6
26/04:00am 24.3 26.9 22.0 87 1.5 ENE 11 24 6 13 1014.1 1012.2 0.0
26/03:30am 23.9 25.3 21.8 88 1.4 ESE 17 26 9 14 1012.2 1010.4 0.0
26/03:00am 23.8 24.8 21.7 88 1.4 ESE 19 22 10 12 1011.8 1010.0 0.0
26/02:30am 23.9 25.5 21.4 86 1.7 ESE 15 19 8 10 1012.0 1010.2 0.0
26/02:00am 24.2 25.4 21.5 85 1.8 SE 17 22 9 12 1012.1 1010.3 0.0
26/01:30am 24.4 25.9 21.3 83 2.1 ESE 15 20 8 11 1012.5 1010.7 0.0
26/01:00am 24.7 25.9 21.4 82 2.2 ESE 17 24 9 13 1012.6 1010.8 0.0
26/12:30am 25.0 28.1 21.5 81 2.3 ESE 7 15 4 8 1012.9 1011.1 0.0
26/12:00am 25.2 25.5 21.5 80 2.5 E 22 30 12 16 1013.1 1011.3 0.0
 
Date/Time
WST
Temp
°C
App
Temp
°C
Dew
Point
°C
Rel
Hum
%
Delta-T
°C
Wind Press
QNH
hPa
Press
MSL
hPa
Rain since
9am
mm
Dir  Spd
km/h
Gust
km/h
Spd
kts
Gust
kts
25/11:30pm 25.5 26.3 21.8 80 2.5 ESE 20 28 11 15 1012.7 1010.9 0.0

Other formats

Comma delimited format used in spreadsheet applications
http://www.bom.gov.au/fwo/IDW60801/IDW60801.94417.axf

JavaScript Object Notation format (JSON) in row-major order
http://www.bom.gov.au/fwo/IDW60801/IDW60801.94417.json

Data quality

Most of these data are generated automatically and are frequently updated. Quality checks on data are not normally performed. It is possible for incorrect values to appear. Refer to information at About Latest Weather Observations and please check the disclaimer before using these data.